Map

Track Data

SID SEASON NUMBER BASIN SUBBASIN NAME ISO_TIME NATURE LAT LON WMO_WIND WMO_PRES WMO_AGENCY TRACK_TYPE DIST2LAND LANDFALL IFLAG USA_AGENCY USA_ATCF_ID USA_LAT USA_LON USA_RECORD USA_STATUS USA_WIND USA_PRES USA_SSHS USA_R34_NE USA_R34_SE USA_R34_SW USA_R34_NW USA_R50_NE USA_R50_SE USA_R50_SW USA_R50_NW USA_R64_NE USA_R64_SE USA_R64_SW USA_R64_NW USA_POCI USA_ROCI USA_RMW USA_EYE TOKYO_LAT TOKYO_LON TOKYO_GRADE TOKYO_WIND TOKYO_PRES TOKYO_R50_DIR TOKYO_R50_LONG TOKYO_R50_SHORT TOKYO_R30_DIR TOKYO_R30_LONG TOKYO_R30_SHORT TOKYO_LAND CMA_LAT CMA_LON CMA_CAT CMA_WIND CMA_PRES HKO_LAT HKO_LON HKO_CAT HKO_WIND HKO_PRES NEWDELHI_LAT NEWDELHI_LON NEWDELHI_GRADE NEWDELHI_WIND NEWDELHI_PRES NEWDELHI_CI NEWDELHI_DP NEWDELHI_POCI REUNION_LAT REUNION_LON REUNION_TYPE REUNION_WIND REUNION_PRES REUNION_TNUM REUNION_CI REUNION_RMW REUNION_R34_NE REUNION_R34_SE REUNION_R34_SW REUNION_R34_NW REUNION_R50_NE REUNION_R50_SE REUNION_R50_SW REUNION_R50_NW REUNION_R64_NE REUNION_R64_SE REUNION_R64_SW REUNION_R64_NW BOM_LAT BOM_LON BOM_TYPE BOM_WIND BOM_PRES BOM_TNUM BOM_CI BOM_RMW BOM_R34_NE BOM_R34_SE BOM_R34_SW BOM_R34_NW BOM_R50_NE BOM_R50_SE BOM_R50_SW BOM_R50_NW BOM_R64_NE BOM_R64_SE BOM_R64_SW BOM_R64_NW BOM_ROCI BOM_POCI BOM_EYE BOM_POS_METHOD BOM_PRES_METHOD NADI_LAT NADI_LON NADI_CAT NADI_WIND NADI_PRES WELLINGTON_LAT WELLINGTON_LON WELLINGTON_WIND WELLINGTON_PRES DS824_LAT DS824_LON DS824_STAGE DS824_WIND DS824_PRES TD9636_LAT TD9636_LON TD9636_STAGE TD9636_WIND TD9636_PRES TD9635_LAT TD9635_LON TD9635_WIND TD9635_PRES TD9635_ROCI NEUMANN_LAT NEUMANN_LON NEUMANN_CLASS NEUMANN_WIND NEUMANN_PRES MLC_LAT MLC_LON MLC_CLASS MLC_WIND MLC_PRES USA_GUST BOM_GUST BOM_GUST_PER REUNION_GUST REUNION_GUST_PER USA_SEAHGT USA_SEARAD_NE USA_SEARAD_SE USA_SEARAD_SW USA_SEARAD_NW STORM_SPEED STORM_DIR
1924244N13096 1924 31 NI BB NOT_NAMED 1924-08-31 00:00:00 TS 13.5000 96.3000 main 195 195 _________O____ -1 13.5000 96.3000 TC 30 4 262
1924244N13096 1924 31 NI BB NOT_NAMED 1924-08-31 03:00:00 TS 13.4684 96.0717 main 216 216 _________PO___ -1 13.4526 95.9575 TC 30 13.5000 96.3000 1 6 261
1924244N13096 1924 31 NI BB NOT_NAMED 1924-08-31 06:00:00 TS 13.4145 95.7350 main 258 257 _________OP___ -1 13.4000 95.6000 TC 30 13.4363 95.9375 1 7 261
1924244N13096 1924 31 NI BB NOT_NAMED 1924-08-31 09:00:00 TS 13.3576 95.3671 main 257 257 _________PP___ -1 13.3424 95.2150 TC 30 13.3779 95.5700 1 7 262
1924244N13096 1924 31 NI BB NOT_NAMED 1924-08-31 12:00:00 TS 13.3153 94.9963 main 268 268 _________OP___ -1 13.3000 94.8000 TC 30 13.3306 95.1926 1 8 265
1924244N13096 1924 31 NI BB NOT_NAMED 1924-08-31 15:00:00 TS 13.2887 94.5787 main 272 272 _________PO___ -1 13.2775 94.3575 TC 30 13.3000 94.8000 1 8 269
1924244N13096 1924 31 NI BB NOT_NAMED 1924-08-31 18:00:00 TS 13.2963 94.1438 main 281 281 _________OP___ -1 13.3000 93.9000 TC 30 13.2925 94.3875 1 8 274
1924244N13096 1924 31 NI BB NOT_NAMED 1924-08-31 21:00:00 TS 13.3435 93.7084 main 289 279 _________PP___ -1 13.3698 93.4649 TC 30 13.3171 93.9519 1 9 279
1924244N13096 1924 31 NI BB NOT_NAMED 1924-09-01 00:00:00 TS 13.4415 93.2452 main 298 288 _________OP___ -1 13.5000 93.0000 TC 30 13.3831 93.4904 1 10 284
1924244N13096 1924 31 NI BB NOT_NAMED 1924-09-01 03:00:00 TS 13.5887 92.7325 main 306 306 _________PO___ -1 13.6775 92.4650 TC 30 13.5000 93.0000 1 11 288
1924244N13096 1924 31 NI BB NOT_NAMED 1924-09-01 06:00:00 TS 13.7854 92.1834 main 325 325 _________OP___ -1 13.9000 91.9000 TC 30 13.6707 92.4669 1 12 292
1924244N13096 1924 31 NI BB NOT_NAMED 1924-09-01 09:00:00 TS 14.0163 91.6214 main 358 358 _________PP___ -1 14.1425 91.3350 TC 30 13.8902 91.9079 1 12 294
1924244N13096 1924 31 NI BB NOT_NAMED 1924-09-01 12:00:00 TS 14.2697 91.0724 main 383 383 _________OP___ -1 14.4000 90.8000 TC 30 14.1395 91.3449 1 11 297
1924244N13096 1924 31 NI BB NOT_NAMED 1924-09-01 15:00:00 TS 14.5249 90.5712 main 421 421 _________PO___ -1 14.6498 90.3423 TC 30 14.4000 90.8000 1 11 298
1924244N13096 1924 31 NI BB NOT_NAMED 1924-09-01 18:00:00 TS 14.7753 90.0976 main 459 459 _________OP___ -1 14.9000 89.9000 TC 30 14.6505 90.2952 1 11 298
1924244N13096 1924 31 NI BB NOT_NAMED 1924-09-01 21:00:00 TS 15.0323 89.6024 main 505 505 _________PP___ -1 15.1575 89.3925 TC 30 14.9070 89.8124 1 11 298
1924244N13096 1924 31 NI BB NOT_NAMED 1924-09-02 00:00:00 TS 15.2800 89.1242 main 551 551 _________OP___ -1 15.4000 88.9000 TC 30 15.1600 89.3483 1 10 298
1924244N13096 1924 31 NI BB NOT_NAMED 1924-09-02 03:00:00 TS 15.5036 88.6962 main 559 521 _________PO___ -1 15.6073 88.4923 TC 30 15.4000 88.9000 1 9 297
1924244N13096 1924 31 NI BB NOT_NAMED 1924-09-02 06:00:00 TS 15.7030 88.2780 main 521 477 _________OP___ -1 15.8000 88.1000 TC 30 15.6059 88.4560 1 9 295
1924244N13096 1924 31 NI BB NOT_NAMED 1924-09-02 09:00:00 TS 15.8960 87.8383 main 469 423 _________PP___ -1 15.9925 87.6499 TC 30 15.7996 88.0268 1 9 295
1924244N13096 1924 31 NI BB NOT_NAMED 1924-09-02 12:00:00 TS 16.0967 87.4046 main 423 377 _________OP___ -1 16.2000 87.2000 TC 30 15.9935 87.6092 1 9 298
1924244N13096 1924 31 NI BB NOT_NAMED 1924-09-02 15:00:00 TS 16.3212 86.9962 main 377 323 _________PO___ -1 16.4424 86.7924 TC 30 16.2000 87.2000 1 9 301
1924244N13096 1924 31 NI BB NOT_NAMED 1924-09-02 18:00:00 TS 16.5658 86.5822 main 323 276 _________OP___ -1 16.7000 86.4000 TC 30 16.4316 86.7644 1 9 302
1924244N13096 1924 31 NI BB NOT_NAMED 1924-09-02 21:00:00 TS 16.8138 86.1588 main 276 223 _________PP___ -1 16.9500 85.9775 TC 30 16.6776 86.3401 1 9 303
1924244N13096 1924 31 NI BB NOT_NAMED 1924-09-03 00:00:00 TS 17.0674 85.7728 main 223 184 _________OP___ -1 17.2000 85.6000 TC 30 16.9348 85.9457 1 8 307
1924244N13096 1924 31 NI BB NOT_NAMED 1924-09-03 03:00:00 TS 17.3212 85.4599 main 184 138 _________PO___ -1 17.4424 85.3198 TC 30 17.2000 85.6000 1 8 313
1924244N13096 1924 31 NI BB NOT_NAMED 1924-09-03 06:00:00 TS 17.5817 85.2021 main 138 107 _________OP___ -1 17.7000 85.1000 TC 30 17.4634 85.3041 1 7 319
1924244N13096 1924 31 NI BB NOT_NAMED 1924-09-03 09:00:00 TS 17.8636 84.9686 main 99 69 _________PP___ -1 17.9925 84.8775 TC 30 17.7346 85.0597 1 7 325
1924244N13096 1924 31 NI BB NOT_NAMED 1924-09-03 12:00:00 TS 18.1568 84.7802 main 61 30 _________OP___ -1 18.3000 84.7000 TC 30 18.0135 84.8605 1 7 332
1924244N13096 1924 31 NI BB NOT_NAMED 1924-09-03 15:00:00 TS 18.4500 84.6424 main 30 0 _________PO___ -1 18.6000 84.5849 TC 30 18.3000 84.7000 1 6 338
1924244N13096 1924 31 NI BB NOT_NAMED 1924-09-03 18:00:00 TS 18.7565 84.5279 main 0 0 _________OP___ -1 18.9000 84.5000 TC 30 18.6130 84.5557 1 7 342
1924244N13096 1924 31 NI BB NOT_NAMED 1924-09-03 21:00:00 TS 19.0762 84.4199 main 0 0 _________PP___ -1 19.2225 84.3925 TC 30 18.9298 84.4473 1 6 343
1924244N13096 1924 31 NI BB NOT_NAMED 1924-09-04 00:00:00 TS 19.3659 84.3326 main 0 0 _________OP___ -1 19.5000 84.3000 TC 30 19.2318 84.3652 1 5 344
1924244N13096 1924 31 NI BB NOT_NAMED 1924-09-04 03:00:00 TS 19.5825 84.2712 main 0 0 _________PO___ -1 19.6650 84.2424 TC 30 19.5000 84.3000 1 4 344
1924244N13096 1924 31 NI BB NOT_NAMED 1924-09-04 06:00:00 TS 19.7554 84.2157 main 0 0 _________OP___ -1 19.8000 84.2000 TC 30 19.7109 84.2314 1 4 344
1924244N13096 1924 31 NI BB NOT_NAMED 1924-09-04 09:00:00 TS 19.9437 84.1637 main 0 0 _________PP___ -1 20.0000 84.1500 TC 30 19.8875 84.1773 1 4 347
1924244N13096 1924 31 NI BB NOT_NAMED 1924-09-04 12:00:00 TS 20.1226 84.1173 main 0 0 _________OP___ -1 20.2000 84.1000 TC 30 20.0453 84.1346 1 3 345
1924244N13096 1924 31 NI BB NOT_NAMED 1924-09-04 15:00:00 TS 20.2750 84.0713 main 0 0 _________PO___ -1 20.3500 84.0425 TC 30 20.2000 84.1000 1 3 346
1924244N13096 1924 31 NI BB NOT_NAMED 1924-09-04 18:00:00 TS 20.4070 84.0398 main 0 0 _________OP___ -1 20.5000 84.0000 TC 30 20.3141 84.0796 1 3 354
1924244N13096 1924 31 NI BB NOT_NAMED 1924-09-04 21:00:00 TS 20.5387 84.0359 main 0 0 _________PP___ -1 20.6400 84.0073 TC 30 20.4375 84.0644 1 4 359
1924244N13096 1924 31 NI BB NOT_NAMED 1924-09-05 00:00:00 TS 20.7586 84.0210 main 0 0 _________OP___ -1 20.9000 84.0000 TC 30 20.6172 84.0420 1 6 353
1924244N13096 1924 31 NI BB NOT_NAMED 1924-09-05 03:00:00 TS 21.1488 83.9576 main 0 0 _________PO___ -1 21.3975 83.9151 TC 30 20.9000 84.0000 1 9 351
1924244N13096 1924 31 NI BB NOT_NAMED 1924-09-05 06:00:00 TS 21.6792 83.8709 main 0 0 _________OP___ -1 22.0000 83.8000 TC 30 21.3584 83.9417 1 11 352
1924244N13096 1924 31 NI BB NOT_NAMED 1924-09-05 09:00:00 TS 22.2412 83.7835 main 0 0 _________PP___ -1 22.5650 83.7074 TC 30 21.9174 83.8597 1 12 351
1924244N13096 1924 31 NI BB NOT_NAMED 1924-09-05 12:00:00 TS 22.8089 83.6739 main 0 0 _________OP___ -1 23.1000 83.6000 TC 30 22.5178 83.7478 1 11 348
1924244N13096 1924 31 NI BB NOT_NAMED 1924-09-05 15:00:00 TS 23.3325 83.5398 main 0 0 _________PO___ -1 23.5649 83.4797 TC 30 23.1000 83.6000 1 10 344
1924244N13096 1924 31 NI BB NOT_NAMED 1924-09-05 18:00:00 TS 23.8014 83.3696 main 0 0 _________OP___ -1 24.0000 83.3000 TC 30 23.6028 83.4391 1 10 338
1924244N13096 1924 31 NI BB NOT_NAMED 1924-09-05 21:00:00 TS 24.2697 83.1348 main 0 0 _________PP___ -1 24.4650 83.0301 TC 30 24.0745 83.2396 1 10 332
1924244N13096 1924 31 NI BB NOT_NAMED 1924-09-06 00:00:00 TS 24.7045 82.8476 main 0 0 _________OP___ -1 24.9000 82.7000 TC 30 24.5089 82.9952 1 10 326
1924244N13096 1924 31 NI BB NOT_NAMED 1924-09-06 03:00:00 TS 25.0899 82.5361 main 0 0 _________PO___ -1 25.2798 82.3723 TC 30 24.9000 82.7000 1 9 321
1924244N13096 1924 31 NI BB NOT_NAMED 1924-09-06 06:00:00 TS 25.4356 82.1893 main 0 0 _________OP___ -1 25.6000 82.0000 TC 30 25.2711 82.3787 1 9 314
1924244N13096 1924 31 NI BB NOT_NAMED 1924-09-06 09:00:00 TS 25.7420 81.7962 main 0 0 _________PP___ -1 25.8872 81.5874 TC 30 25.5967 82.0050 1 9 306
1924244N13096 1924 31 NI BB NOT_NAMED 1924-09-06 12:00:00 TS 25.9870 81.3394 main 0 0 _________OP___ -1 26.1000 81.1000 TC 30 25.8740 81.5787 1 10 295
1924244N13096 1924 31 NI BB NOT_NAMED 1924-09-06 15:00:00 TS 26.1575 80.8073 main 0 0 _________PO___ -1 26.2151 80.5146 TC 30 26.1000 81.1000 1 11 287
1924244N13096 1924 31 NI BB NOT_NAMED 1924-09-06 18:00:00 TS 26.2967 80.1970 main 0 0 _________OP___ -1 26.3000 79.9000 TC 30 26.2934 80.4940 1 12 284
1924244N13096 1924 31 NI BB NOT_NAMED 1924-09-06 21:00:00 TS 26.4465 79.5602 main 0 0 _________PP___ -1 26.4578 79.2678 TC 30 26.4352 79.8525 1 11 284
1924244N13096 1924 31 NI BB NOT_NAMED 1924-09-07 00:00:00 TS 26.5670 79.0298 main 0 0 _________OP___ -1 26.6000 78.8000 TC 30 26.5340 79.2597 1 8 285
1924244N13096 1924 31 NI BB NOT_NAMED 1924-09-07 03:00:00 TS 26.6361 78.7411 main 0 0 _________PO___ -1 26.6721 78.6823 TC 30 26.6000 78.8000 1 4 288
1924244N13096 1924 31 NI BB NOT_NAMED 1924-09-07 06:00:00 TS 26.6761 78.6443 main 0 0 _________OP___ -1 26.7000 78.7000 TC 30 26.6522 78.5886 1 2 288
1924244N13096 1924 31 NI BB NOT_NAMED 1924-09-07 09:00:00 TS 26.6892 78.5608 main 0 0 _________PP___ -1 26.7000 78.6075 TC 30 26.6783 78.5142 1 1 279
1924244N13096 1924 31 NI BB NOT_NAMED 1924-09-07 12:00:00 TS 26.6952 78.5038 main 0 0 _________OP___ -1 26.7000 78.5000 TC 30 26.6903 78.5077 1 1 290
1924244N13096 1924 31 NI BB NOT_NAMED 1924-09-07 15:00:00 TS 26.7250 78.4538 main 0 0 _________PO___ -1 26.7500 78.4075 TC 30 26.7000 78.5000 1 1 297
1924244N13096 1924 31 NI BB NOT_NAMED 1924-09-07 18:00:00 TS 26.7525 78.3780 main 0 0 _________OP___ -1 26.8000 78.3000 TC 30 26.7169 78.4366 1 2 284
1924244N13096 1924 31 NI BB NOT_NAMED 1924-09-07 21:00:00 TS 26.7695 78.2562 main 0 0 _________PP___ -1 26.8125 78.1600 TC 30 26.7408 78.3204 1 2 277
1924244N13096 1924 31 NI BB NOT_NAMED 1924-09-08 00:00:00 TS 26.7795 78.1127 main 0 0 _________OP___ -1 26.8000 78.0000 TC 30 26.7693 78.1690 1 2 278
1924244N13096 1924 31 NI AS NOT_NAMED 1924-09-08 03:00:00 NR 26.8000 78.0000 main 0 __________O___ -1 TC 26.8000 78.0000 1 2 282

About IBTrACS Database

This database is a web-friendly format of International Best Track Archive for Climate Stewardship (IBTrACS), a global best track data archive curated by NOAA dating back to 1842.

Updated: 2021-12-06